Hellier, Kentucky
Current Conditions -  °F | °C
As of 6:55 PM on Wednesday 28 Jan 2015 (Local Time) from KPBX Reporting Station
Clear Clear  
Wind Chill: 22°   Ceiling: Unl
Heat Index: 29°   Visibility: 10mi
Dew Point: 19°   Wind: 7mph
Humidity: 68%   Direction: 50°NE
Pressure: 30.25"   Gusts: NA
Location:  37.29°N, 82.47°W
Report Text: KPBX 282355Z AUTO 05006KT 10SM CLR M02/M07 A3025 RMK AO2 T10181070 10006 21024
Loading
Personal Weather Stations






























Interactive Weather Map New forecast layout! Learn more

10-Day Weather Forecast

Advertisements
Track Severe Weather on mobile